createdAt,value
2023-04-08T00:02:08.982Z,7.90
2023-04-08T00:04:41.646Z,7.90
2023-04-08T00:07:13.682Z,7.80
2023-04-08T00:12:19.717Z,7.90
2023-04-08T00:14:51.552Z,7.90
2023-04-08T00:17:24.328Z,8.00
2023-04-08T00:19:56.529Z,8.10
2023-04-08T00:22:29.223Z,8.10
2023-04-08T00:25:01.786Z,8.00
2023-04-08T00:27:37.009Z,8.00
2023-04-08T00:30:09.574Z,8.00
2023-04-08T00:35:19.209Z,8.10
2023-04-08T00:37:52.172Z,8.10
2023-04-08T00:42:58.956Z,8.50
2023-04-08T00:45:34.766Z,8.20
2023-04-08T00:48:06.740Z,8.10
2023-04-08T00:50:40.417Z,7.90
2023-04-08T00:53:13.584Z,7.90
2023-04-08T00:58:40.180Z,7.60
2023-04-08T01:01:27.237Z,7.60
2023-04-08T01:04:26.088Z,7.50
2023-04-08T01:10:16.483Z,7.30
2023-04-08T01:13:02.375Z,7.30
2023-04-08T01:15:39.281Z,7.30
2023-04-08T01:18:14.241Z,7.30
2023-04-08T01:20:50.430Z,7.30
2023-04-08T01:23:50.670Z,7.20
2023-04-08T01:26:26.450Z,7.20
2023-04-08T01:29:02.548Z,7.10
2023-04-08T01:31:37.096Z,7.00
2023-04-08T01:34:12.176Z,7.00
2023-04-08T01:36:47.021Z,6.90
2023-04-08T01:39:21.949Z,6.90
2023-04-08T01:41:55.179Z,6.80
2023-04-08T01:44:31.207Z,6.80
2023-04-08T01:47:03.868Z,6.90
2023-04-08T01:49:37.517Z,7.00
2023-04-08T01:52:10.639Z,6.90
2023-04-08T01:57:24.444Z,7.00
2023-04-08T02:00:02.463Z,7.00
2023-04-08T02:02:38.481Z,7.10
2023-04-08T02:05:11.249Z,7.20
2023-04-08T02:07:43.128Z,7.20
2023-04-08T02:10:16.532Z,7.20
2023-04-08T02:12:48.521Z,7.20
2023-04-08T02:15:21.235Z,7.20
2023-04-08T02:18:07.977Z,7.20
2023-04-08T02:20:58.315Z,7.20
2023-04-08T02:23:33.722Z,7.30
2023-04-08T02:26:14.638Z,7.40
2023-04-08T02:28:49.760Z,7.40
2023-04-08T02:31:23.478Z,7.50
2023-04-08T02:33:57.796Z,7.40
2023-04-08T02:36:33.824Z,7.40
2023-04-08T02:39:08.373Z,7.50
2023-04-08T02:46:46.753Z,7.70
2023-04-08T02:49:18.684Z,7.70
2023-04-08T02:51:51.336Z,7.70
2023-04-08T02:54:23.381Z,7.70
2023-04-08T02:56:55.990Z,7.70
2023-04-08T02:59:28.206Z,7.70
2023-04-08T03:02:00.487Z,7.70
2023-04-08T03:07:07.347Z,7.70
2023-04-08T03:09:41.497Z,7.80
2023-04-08T03:12:13.379Z,7.70
2023-04-08T03:14:46.123Z,7.70
2023-04-08T03:17:17.994Z,7.70
2023-04-08T03:19:50.768Z,7.70
2023-04-08T03:22:24.319Z,7.60
2023-04-08T03:24:56.883Z,7.60
2023-04-08T03:27:28.835Z,7.70
2023-04-08T03:30:01.385Z,7.70
2023-04-08T03:32:33.556Z,7.60
2023-04-08T03:35:07.104Z,7.60
2023-04-08T03:40:13.093Z,7.60
2023-04-08T03:45:18.345Z,7.60
2023-04-08T03:47:50.348Z,7.60
2023-04-08T03:55:28.383Z,7.50
2023-04-08T04:03:06.585Z,8.00
2023-04-08T04:05:40.224Z,7.90
2023-04-08T04:13:17.643Z,7.70
2023-04-08T04:18:23.050Z,7.70
2023-04-08T04:23:28.421Z,7.60
2023-04-08T04:28:33.268Z,7.60
2023-04-08T04:31:05.527Z,7.60
2023-04-08T04:33:38.131Z,7.70
2023-04-08T04:36:09.993Z,7.60
2023-04-08T04:38:43.426Z,7.60
2023-04-08T04:43:48.262Z,8.40
2023-04-08T04:46:20.493Z,8.00
2023-04-08T04:48:53.337Z,7.80
2023-04-08T04:51:25.183Z,7.60
2023-04-08T04:53:57.750Z,7.50
2023-04-08T04:56:29.674Z,7.40
2023-04-08T04:59:02.222Z,7.40
2023-04-08T05:01:34.400Z,7.40
2023-04-08T05:04:07.954Z,7.50
2023-04-08T05:06:39.956Z,7.50
2023-04-08T05:09:12.515Z,7.50
2023-04-08T05:11:44.383Z,7.40
2023-04-08T05:14:16.661Z,7.50
2023-04-08T05:16:48.537Z,7.50
2023-04-08T05:19:21.120Z,7.60
2023-04-08T05:21:52.981Z,7.60
2023-04-08T05:24:25.197Z,7.60
2023-04-08T05:26:57.809Z,7.60
2023-04-08T05:32:02.750Z,7.60
2023-04-08T05:34:35.014Z,7.70
2023-04-08T05:37:06.881Z,7.80
2023-04-08T05:39:39.476Z,7.90
2023-04-08T05:42:12.839Z,7.90
2023-04-08T05:44:45.548Z,7.90
2023-04-08T05:47:17.429Z,8.00
2023-04-08T05:49:51.255Z,8.10
2023-04-08T05:54:55.864Z,8.10
2023-04-08T05:57:28.464Z,8.10
2023-04-08T06:00:00.429Z,8.20
2023-04-08T06:02:33.141Z,8.30
2023-04-08T06:05:06.105Z,8.40
2023-04-08T06:07:38.818Z,8.40
2023-04-08T06:10:11.192Z,8.50
2023-04-08T06:12:43.750Z,8.50
2023-04-08T06:15:16.627Z,8.50
2023-04-08T06:17:49.226Z,8.50
2023-04-08T06:20:21.105Z,8.40
2023-04-08T06:22:53.661Z,8.50
2023-04-08T06:27:58.524Z,8.50
2023-04-08T06:30:30.419Z,8.50
2023-04-08T06:33:03.132Z,8.50
2023-04-08T06:38:10.035Z,8.60
2023-04-08T06:40:42.018Z,8.70
2023-04-08T06:45:47.403Z,8.70
2023-04-08T06:48:19.949Z,8.80
2023-04-08T06:50:51.865Z,10.70
2023-04-08T06:53:25.091Z,11.10
2023-04-08T06:55:57.031Z,9.90
2023-04-08T06:58:30.270Z,9.40
2023-04-08T07:01:03.276Z,9.00
2023-04-08T07:03:35.962Z,8.90
2023-04-08T07:06:07.939Z,8.70
2023-04-08T07:11:12.875Z,8.70
2023-04-08T07:13:45.453Z,8.60
2023-04-08T07:16:17.434Z,8.60
2023-04-08T07:18:50.230Z,8.60
2023-04-08T07:21:22.319Z,8.70
2023-04-08T07:23:54.866Z,8.70
2023-04-08T07:26:28.739Z,8.90
2023-04-08T07:29:00.616Z,8.90
2023-04-08T07:31:32.910Z,9.30
2023-04-08T07:34:04.985Z,9.70
2023-04-08T07:36:38.704Z,9.90
2023-04-08T07:39:10.939Z,10.10
2023-04-08T07:41:43.180Z,10.20
2023-04-08T07:44:17.164Z,10.40
2023-04-08T07:51:57.826Z,10.40
2023-04-08T07:54:34.106Z,10.30
2023-04-08T07:59:39.258Z,10.30
2023-04-08T08:02:11.900Z,10.50
2023-04-08T08:04:43.968Z,10.70
2023-04-08T08:07:16.897Z,10.60
2023-04-08T08:09:49.162Z,10.80
2023-04-08T08:12:21.772Z,10.70
2023-04-08T08:14:54.822Z,10.90
2023-04-08T08:22:47.317Z,10.80
2023-04-08T08:25:26.690Z,10.90
2023-04-08T08:33:04.088Z,11.20
2023-04-08T08:35:36.070Z,11.20
2023-04-08T08:38:08.694Z,11.50
2023-04-08T08:40:40.738Z,11.60
2023-04-08T08:43:14.450Z,11.50
2023-04-08T08:45:47.738Z,11.50
2023-04-08T08:48:20.900Z,11.50
2023-04-08T08:50:52.865Z,11.80
2023-04-08T08:53:34.244Z,11.90
2023-04-08T09:01:34.444Z,11.90
2023-04-08T09:04:19.876Z,11.80
2023-04-08T09:07:27.140Z,11.90
2023-04-08T09:09:59.922Z,11.90
2023-04-08T09:15:09.801Z,11.90
2023-04-08T09:17:42.867Z,11.90
2023-04-08T09:20:15.415Z,11.90
2023-04-08T09:23:02.701Z,12.00
2023-04-08T09:25:34.649Z,11.90
2023-04-08T09:28:24.209Z,12.20
2023-04-08T09:33:32.573Z,12.20
2023-04-08T09:36:06.226Z,12.10
2023-04-08T09:41:16.606Z,12.10
2023-04-08T09:43:54.734Z,12.10
2023-04-08T09:46:32.222Z,12.00
2023-04-08T09:49:13.706Z,11.90
2023-04-08T09:52:09.749Z,11.80
2023-04-08T09:55:08.668Z,11.80
2023-04-08T09:58:00.109Z,11.70
2023-04-08T10:00:44.446Z,11.60
2023-04-08T10:03:40.760Z,11.60
2023-04-08T10:08:46.728Z,11.60
2023-04-08T10:16:27.806Z,11.70
2023-04-08T10:19:00.266Z,11.60
2023-04-08T10:21:36.334Z,11.50
2023-04-08T10:24:12.262Z,11.30
2023-04-08T10:26:49.244Z,11.30
2023-04-08T10:29:31.165Z,11.20
2023-04-08T10:32:04.081Z,11.20
2023-04-08T10:34:54.301Z,11.20
2023-04-08T10:39:59.435Z,11.70
2023-04-08T10:50:20.810Z,11.50
2023-04-08T10:52:54.396Z,11.70
2023-04-08T10:55:27.416Z,11.90
2023-04-08T10:58:11.144Z,11.90
2023-04-08T11:03:16.965Z,12.40
2023-04-08T11:05:52.155Z,12.50
2023-04-08T11:08:33.013Z,12.70
2023-04-08T11:11:11.315Z,12.90
2023-04-08T11:13:53.453Z,13.20
2023-04-08T11:16:28.038Z,15.80
2023-04-08T11:19:00.403Z,13.30
2023-04-08T11:21:36.041Z,13.40
2023-04-08T11:24:13.681Z,14.00
2023-04-08T11:29:18.423Z,15.00
2023-04-08T11:34:25.685Z,14.40
2023-04-08T11:36:59.488Z,14.10
2023-04-08T11:39:32.056Z,14.70
2023-04-08T11:44:37.720Z,15.00
2023-04-08T11:49:47.856Z,15.60
2023-04-08T11:52:48.035Z,15.80
2023-04-08T11:55:34.174Z,15.70
2023-04-08T11:58:07.478Z,15.10
2023-04-08T12:03:13.725Z,14.30
2023-04-08T12:10:52.462Z,11.10
2023-04-08T12:13:24.378Z,13.50
2023-04-08T12:15:57.116Z,13.40
2023-04-08T12:18:29.003Z,13.40
2023-04-08T12:21:01.780Z,13.40
2023-04-08T12:23:33.748Z,13.30
2023-04-08T12:26:06.777Z,13.40
2023-04-08T12:28:38.999Z,13.30
2023-04-08T12:41:43.145Z,13.30
2023-04-08T12:46:48.616Z,13.40
2023-04-08T12:49:20.612Z,13.90
2023-04-08T12:54:26.135Z,14.70
2023-04-08T12:56:58.945Z,16.10
2023-04-08T13:07:11.578Z,15.50
2023-04-08T13:09:45.868Z,15.20
2023-04-08T13:14:50.651Z,14.30
2023-04-08T13:17:23.439Z,14.10
2023-04-08T13:27:34.671Z,14.00
2023-04-08T13:30:07.482Z,14.20
2023-04-08T13:32:39.895Z,14.10
2023-04-08T13:35:11.874Z,14.00
2023-04-08T13:47:57.126Z,14.00
2023-04-08T13:50:28.988Z,14.00
2023-04-08T13:53:01.946Z,13.80
2023-04-08T13:58:17.281Z,14.00
2023-04-08T14:00:56.011Z,14.00
2023-04-08T14:06:02.059Z,13.70
2023-04-08T14:08:34.020Z,13.70
2023-04-08T14:11:06.930Z,13.70
2023-04-08T14:18:44.294Z,15.30
2023-04-08T14:21:18.566Z,13.10
2023-04-08T14:31:51.222Z,13.10
2023-04-08T14:36:56.655Z,12.90
2023-04-08T14:42:04.681Z,12.80
2023-04-08T14:44:36.938Z,12.80
2023-04-08T14:54:48.879Z,12.60
2023-04-08T14:57:20.867Z,12.70
2023-04-08T14:59:54.359Z,12.80
2023-04-08T15:02:26.716Z,12.70
2023-04-08T15:04:59.072Z,12.70
2023-04-08T15:07:32.277Z,12.70
2023-04-08T15:12:37.415Z,12.70
2023-04-08T15:15:10.390Z,12.60
2023-04-08T15:20:15.593Z,12.60
2023-04-08T15:25:20.816Z,12.70
2023-04-08T15:27:52.704Z,12.70
2023-04-08T15:30:28.717Z,12.70
2023-04-08T15:33:05.658Z,12.80
2023-04-08T15:35:39.508Z,12.90
2023-04-08T15:41:05.411Z,12.80
2023-04-08T15:43:38.129Z,12.90
2023-04-08T15:49:03.604Z,13.00
2023-04-08T15:51:59.905Z,12.90
2023-04-08T15:54:34.073Z,12.90
2023-04-08T15:57:06.800Z,12.90
2023-04-08T15:59:38.658Z,13.00
2023-04-08T16:02:11.430Z,13.10
2023-04-08T16:04:44.204Z,13.00
2023-04-08T16:07:17.113Z,12.90
2023-04-08T16:09:48.954Z,12.80
2023-04-08T16:12:21.778Z,12.80
2023-04-08T16:14:53.883Z,12.70
2023-04-08T16:17:27.954Z,12.60
2023-04-08T16:20:00.390Z,12.60
2023-04-08T16:25:06.452Z,12.60
2023-04-08T16:27:39.259Z,12.60
2023-04-08T16:30:11.898Z,12.40
2023-04-08T16:32:44.670Z,12.50
2023-04-08T16:35:17.752Z,12.40
2023-04-08T16:42:56.821Z,12.50
2023-04-08T16:45:30.310Z,12.50
2023-04-08T16:48:02.540Z,12.60
2023-04-08T16:50:35.227Z,12.50
2023-04-08T16:53:07.192Z,12.50
2023-04-08T16:55:40.174Z,12.50
2023-04-08T17:00:45.190Z,12.40
2023-04-08T17:08:23.738Z,12.00
2023-04-08T17:11:13.092Z,12.00
2023-04-08T17:16:24.036Z,11.90
2023-04-08T17:18:56.100Z,11.90
2023-04-08T17:24:22.458Z,12.00
2023-04-08T17:26:57.188Z,12.00
2023-04-08T17:32:01.877Z,12.00
2023-04-08T17:34:34.780Z,11.90
2023-04-08T17:45:08.678Z,11.70
2023-04-08T17:50:36.665Z,11.60
2023-04-08T17:53:08.927Z,11.60
2023-04-08T17:55:41.432Z,11.60
2023-04-08T17:58:13.374Z,11.60
2023-04-08T18:00:47.653Z,11.60
2023-04-08T18:03:20.730Z,11.70
2023-04-08T18:05:55.138Z,10.50
2023-04-08T18:08:27.922Z,11.70
2023-04-08T18:10:59.822Z,11.70
2023-04-08T18:13:32.618Z,11.70
2023-04-08T18:16:15.653Z,11.60
2023-04-08T18:18:48.562Z,11.60
2023-04-08T18:21:22.004Z,11.50
2023-04-08T18:23:55.018Z,11.70
2023-04-08T18:29:04.449Z,12.50
2023-04-08T18:31:36.725Z,12.10
2023-04-08T18:34:09.162Z,11.90
2023-04-08T18:36:41.107Z,11.80
2023-04-08T18:39:13.881Z,11.60
2023-04-08T18:41:45.813Z,11.50
2023-04-08T18:44:19.122Z,11.50
2023-04-08T18:46:51.711Z,11.40
2023-04-08T18:54:34.796Z,11.40
2023-04-08T18:57:07.517Z,11.40
2023-04-08T19:02:12.604Z,11.30
2023-04-08T19:04:45.357Z,11.30
2023-04-08T19:07:17.786Z,11.20
2023-04-08T19:12:26.576Z,11.10
2023-04-08T19:14:59.755Z,11.10
2023-04-08T19:17:31.778Z,11.10
2023-04-08T19:20:04.920Z,11.10
2023-04-08T19:22:37.580Z,11.00
2023-04-08T19:25:09.619Z,11.00
2023-04-08T19:27:42.373Z,11.10
2023-04-08T19:32:49.035Z,11.10
2023-04-08T19:35:21.460Z,11.00
2023-04-08T19:37:54.140Z,10.90
2023-04-08T19:40:26.233Z,10.90
2023-04-08T19:42:59.684Z,10.80
2023-04-08T19:50:39.447Z,10.70
2023-04-08T19:53:11.414Z,10.70
2023-04-08T19:55:44.867Z,10.60
2023-04-08T19:58:16.788Z,10.50
2023-04-08T20:00:49.690Z,10.40
2023-04-08T20:03:22.339Z,10.40
2023-04-08T20:05:55.456Z,10.40
2023-04-08T20:08:28.494Z,10.30
2023-04-08T20:11:04.567Z,10.30
2023-04-08T20:16:10.172Z,10.20
2023-04-08T20:18:42.061Z,10.10
2023-04-08T20:21:15.080Z,10.10
2023-04-08T20:23:47.269Z,10.10
2023-04-08T20:28:56.254Z,10.00
2023-04-08T20:36:38.589Z,9.80
2023-04-08T20:41:44.921Z,9.80
2023-04-08T20:44:17.554Z,9.80
2023-04-08T20:46:50.505Z,9.70
2023-04-08T20:54:31.235Z,9.70
2023-04-08T20:59:39.172Z,9.70
2023-04-08T21:02:22.461Z,9.70
2023-04-08T21:04:58.465Z,9.70
2023-04-08T21:07:31.206Z,9.60
2023-04-08T21:10:07.522Z,9.60
2023-04-08T21:15:12.725Z,9.60
2023-04-08T21:20:17.992Z,9.60
2023-04-08T21:22:50.494Z,9.60
2023-04-08T21:25:24.800Z,9.50
2023-04-08T21:27:57.605Z,9.60
2023-04-08T21:30:48.330Z,9.50
2023-04-08T21:33:21.502Z,9.50
2023-04-08T21:35:53.513Z,9.50
2023-04-08T21:38:26.219Z,9.40
2023-04-08T21:40:58.932Z,9.40
2023-04-08T21:43:31.231Z,9.40
2023-04-08T21:46:04.233Z,9.30
2023-04-08T21:51:08.932Z,9.30
2023-04-08T21:53:41.661Z,9.40
2023-04-08T21:56:13.970Z,9.30
2023-04-08T21:58:46.762Z,9.30
2023-04-08T22:03:54.257Z,9.20
2023-04-08T22:06:32.265Z,9.10
2023-04-08T22:09:05.556Z,9.10
2023-04-08T22:11:39.584Z,9.10
2023-04-08T22:14:12.069Z,9.00
2023-04-08T22:17:04.072Z,9.00
2023-04-08T22:19:36.146Z,8.90
2023-04-08T22:22:08.833Z,8.90
2023-04-08T22:24:40.764Z,8.80
2023-04-08T22:27:13.982Z,8.80
2023-04-08T22:29:46.276Z,8.80
2023-04-08T22:32:40.991Z,8.80
2023-04-08T22:37:46.309Z,8.70
2023-04-08T22:40:18.364Z,8.80
2023-04-08T22:42:51.252Z,8.80
2023-04-08T22:45:23.566Z,8.80
2023-04-08T22:47:55.580Z,9.00
2023-04-08T22:50:28.994Z,9.00
2023-04-08T22:53:00.886Z,9.00
2023-04-08T22:55:33.706Z,9.00
2023-04-08T22:58:05.959Z,9.00
2023-04-08T23:00:38.673Z,9.00
2023-04-08T23:03:10.582Z,8.90
2023-04-08T23:05:43.541Z,8.90
2023-04-08T23:08:16.461Z,8.70
2023-04-08T23:10:48.765Z,8.80
2023-04-08T23:13:21.101Z,8.80
2023-04-08T23:15:53.686Z,8.70
2023-04-08T23:18:26.555Z,8.70
2023-04-08T23:20:59.722Z,8.60
2023-04-08T23:23:31.893Z,8.50
2023-04-08T23:33:42.598Z,8.50
2023-04-08T23:39:08.489Z,8.40
2023-04-08T23:41:41.286Z,8.40
2023-04-08T23:44:13.184Z,8.40
2023-04-08T23:46:46.007Z,8.30
2023-04-08T23:49:18.275Z,8.20
2023-04-08T23:51:50.698Z,8.00
2023-04-08T23:54:23.042Z,7.90
2023-04-08T23:56:55.324Z,7.80
2023-04-08T23:59:30.840Z,7.70
